This is the latest recevied weather packets stored in our database for station/object K0WXC-1. If no packets are shown the sender has not sent any weather packets the latest 1 day(s).
| Time | Temp. | Humidity | Pressure | Rain* | Wind** | Luminosity | Snow |
|---|---|---|---|---|---|---|---|
| 1778081908 | 11.67° C | 41% | 1004.7 hPa | 0 mm | 1.34 m/s, 339° | - | - |
| 1778081728 | 11.11° C | 45% | 1004.6 hPa | 0 mm | 1.34 m/s, 268° | - | - |
| 1778081608 | 11.11° C | 45% | 1004.6 hPa | 0 mm | 1.34 m/s, 268° | - | - |
| 1778081488 | 11.11° C | 45% | 1004.6 hPa | 0 mm | 1.34 m/s, 268° | - | - |
| 1778081248 | 11.11° C | 43% | 1004.7 hPa | 0 mm | 0.89 m/s, 247° | - | - |
| 1778081128 | 11.11° C | 45% | 1004.9 hPa | 0 mm | 1.79 m/s, 257° | - | - |
| 1778080888 | 11.11° C | 45% | 1004.9 hPa | 0 mm | 1.79 m/s, 257° | - | - |
| 1778080768 | 11.11° C | 50% | 1004.6 hPa | 0 mm | 0.89 m/s, 163° | - | - |
| 1778080528 | 11.11° C | 43% | 1004.4 hPa | 0 mm | 3.13 m/s, 271° | - | - |
| 1778080408 | 11.11° C | 43% | 1004.4 hPa | 0 mm | 3.13 m/s, 271° | - | - |
| 1778080348 | 11.11° C | 43% | 1004.4 hPa | 0 mm | 3.13 m/s, 271° | - | - |
| 1778080288 | 11.11° C | 43% | 1004.4 hPa | 0 mm | 3.13 m/s, 271° | - | - |
| 1778080168 | 11.11° C | 45% | 1004.4 hPa | 0 mm | 1.79 m/s, 289° | - | - |
| 1778079928 | 11.11° C | 52% | 1004.6 hPa | 0 mm | 0.89 m/s, 121° | - | - |
| 1778079868 | 11.11° C | 52% | 1004.6 hPa | 0 mm | 0.89 m/s, 121° | - | - |
| 1778079568 | 11.11° C | 46% | 1004.5 hPa | 0 mm | 2.24 m/s, 0° | - | - |
| 1778079508 | 11.11° C | 46% | 1004.5 hPa | 0 mm | 2.24 m/s, 0° | - | - |
| 1778079388 | 11.11° C | 46% | 1004.5 hPa | 0 mm | 2.24 m/s, 0° | - | - |
| 1778079328 | 10.56° C | 49% | 1004.5 hPa | 0 mm | 2.24 m/s, 276° | - | - |
| 1778079268 | 10.56° C | 49% | 1004.5 hPa | 0 mm | 2.24 m/s, 276° | - | - |
| 1778079148 | 10.56° C | 49% | 1004.5 hPa | 0 mm | 2.24 m/s, 276° | - | - |
| 1778079088 | 10.56° C | 49% | 1004.5 hPa | 0 mm | 2.24 m/s, 276° | - | - |
| 1778078368 | 10.56° C | 52% | 1004.5 hPa | 0 mm | 0.89 m/s, 112° | - | - |
| 1778078308 | 10.56° C | 52% | 1004.5 hPa | 0 mm | 0.89 m/s, 112° | - | - |
| 1778077888 | 10° C | 49% | 1004.2 hPa | 0 mm | 1.79 m/s, 331° | - | - |
* Rain latest hour (hover to see other rain measurements)
** Current wind speed in m/s (hover to see current wind gust speed)